KTUP/TUP METAR and TAF weather

Enter ICAO airport designator
Station Type Date Time Source
KTUP METAR 2019/05/25 08:53 UTC NOAA

KTUP 250853Z AUTO 00000KT 10SM CLR 22/19 A3010 RMK AO2 SLP189 T02170194 51008


Station Type Date Time Source
KTUP Decoded METAR 2019/05/25 08:53 UTC NOAA

TUPELO REGIONAL AIRPORT, MS, United States (KTUP) 34-16N 88-46W 105M
May 25, 2019 - 04:53 AM EDT / 2019.05.25 0853 UTC
Wind: Calm:0
Visibility: 10 mile(s):0
Sky conditions: clear
Temperature: 71.1 F (21.7 C)
Dew Point: 66.9 F (19.4 C)
Relative Humidity: 86%
Pressure (altimeter): 30.1 in. Hg (1019 hPa)
Pressure tendency: 0.02 inches (0.8 hPa) higher than three hours ago
ob: KTUP 250853Z AUTO 00000KT 10SM CLR 22/19 A3010 RMK AO2 SLP189 T02170194 51008
cycle: 9

Station Type Date Time Source
KTUP TAF 2019/05/25 06:22 UTC NOAA

TAF KTUP 250520Z 2506/2606 17003KT P6SM SKC
FM251500 21008KT P6SM FEW045
FM260000 17004KT P6SM SKC

Example: see airport list